createdAt,value
2023-03-27T00:01:32.346Z,6.50
2023-03-27T00:04:01.770Z,6.60
2023-03-27T00:06:34.906Z,6.50
2023-03-27T00:09:08.134Z,6.50
2023-03-27T00:11:37.252Z,6.60
2023-03-27T00:14:07.427Z,6.70
2023-03-27T00:16:38.785Z,6.60
2023-03-27T00:19:08.384Z,6.60
2023-03-27T00:21:37.367Z,6.50
2023-03-27T00:24:07.153Z,6.50
2023-03-27T00:26:36.021Z,6.50
2023-03-27T00:29:05.375Z,6.50
2023-03-27T00:31:36.703Z,6.50
2023-03-27T00:34:07.499Z,6.50
2023-03-27T00:36:36.430Z,6.40
2023-03-27T00:39:05.472Z,6.40
2023-03-27T00:41:34.919Z,6.30
2023-03-27T00:44:04.342Z,6.30
2023-03-27T00:46:42.672Z,6.30
2023-03-27T00:49:15.388Z,6.30
2023-03-27T00:51:48.738Z,6.30
2023-03-27T00:54:22.110Z,6.30
2023-03-27T00:56:51.665Z,6.30
2023-03-27T00:59:24.798Z,6.30
2023-03-27T01:01:54.097Z,6.30
2023-03-27T01:04:24.959Z,6.30
2023-03-27T01:06:57.947Z,6.30
2023-03-27T01:09:28.235Z,6.40
2023-03-27T01:12:11.381Z,6.30
2023-03-27T01:14:50.615Z,6.30
2023-03-27T01:17:34.126Z,6.30
2023-03-27T01:20:32.859Z,6.30
2023-03-27T01:23:35.708Z,6.30
2023-03-27T01:26:58.323Z,6.40
2023-03-27T01:29:48.647Z,6.30
2023-03-27T01:33:08.396Z,6.30
2023-03-27T01:36:13.620Z,6.20
2023-03-27T01:39:24.262Z,6.20
2023-03-27T01:42:04.479Z,6.10
2023-03-27T01:44:45.286Z,6.20
2023-03-27T01:47:26.650Z,6.20
2023-03-27T01:49:58.743Z,6.20
2023-03-27T01:52:31.825Z,6.20
2023-03-27T01:55:05.628Z,6.20
2023-03-27T01:57:49.446Z,6.10
2023-03-27T02:00:23.524Z,6.00
2023-03-27T02:02:57.386Z,6.00
2023-03-27T02:05:32.489Z,5.90
2023-03-27T02:08:07.801Z,5.90
2023-03-27T02:10:42.270Z,5.90
2023-03-27T02:13:21.651Z,5.90
2023-03-27T02:15:54.473Z,5.90
2023-03-27T02:18:29.246Z,5.90
2023-03-27T02:20:58.467Z,5.80
2023-03-27T02:23:31.199Z,5.90
2023-03-27T02:26:00.651Z,5.90
2023-03-27T02:28:41.777Z,5.90
2023-03-27T02:31:32.497Z,5.90
2023-03-27T02:34:21.006Z,5.90
2023-03-27T02:36:57.087Z,5.90
2023-03-27T02:39:44.245Z,5.90
2023-03-27T02:42:21.052Z,5.90
2023-03-27T02:45:11.087Z,5.90
2023-03-27T02:47:45.301Z,5.80
2023-03-27T02:50:18.319Z,5.80
2023-03-27T02:52:51.750Z,5.80
2023-03-27T02:55:24.828Z,5.70
2023-03-27T02:58:00.402Z,5.70
2023-03-27T03:00:49.136Z,5.70
2023-03-27T03:03:49.190Z,5.70
2023-03-27T03:06:34.048Z,5.70
2023-03-27T03:09:06.548Z,5.70
2023-03-27T03:11:36.700Z,5.70
2023-03-27T03:14:07.596Z,5.60
2023-03-27T03:16:38.017Z,5.60
2023-03-27T03:19:07.613Z,5.50
2023-03-27T03:21:36.891Z,5.40
2023-03-27T03:24:06.893Z,5.40
2023-03-27T03:26:35.949Z,6.10
2023-03-27T03:29:04.937Z,5.30
2023-03-27T03:31:56.005Z,5.30
2023-03-27T03:34:25.294Z,5.30
2023-03-27T03:36:55.413Z,5.20
2023-03-27T03:39:31.686Z,5.20
2023-03-27T03:42:00.804Z,5.30
2023-03-27T03:44:29.575Z,5.20
2023-03-27T03:47:01.555Z,5.10
2023-03-27T03:49:30.848Z,5.10
2023-03-27T03:52:03.694Z,4.90
2023-03-27T03:54:34.711Z,4.90
2023-03-27T03:57:03.798Z,4.80
2023-03-27T03:59:35.096Z,4.80
2023-03-27T04:02:31.742Z,4.80
2023-03-27T04:05:11.543Z,4.70
2023-03-27T04:07:42.888Z,4.60
2023-03-27T04:10:23.063Z,4.60
2023-03-27T04:12:52.967Z,4.50
2023-03-27T04:15:31.281Z,4.40
2023-03-27T04:18:05.169Z,4.30
2023-03-27T04:20:35.555Z,4.20
2023-03-27T04:23:06.764Z,4.10
2023-03-27T04:25:40.402Z,4.10
2023-03-27T04:28:17.015Z,3.90
2023-03-27T04:30:51.050Z,3.80
2023-03-27T04:33:23.762Z,3.70
2023-03-27T04:36:06.249Z,3.50
2023-03-27T04:38:55.884Z,3.30
2023-03-27T04:41:25.373Z,3.20
2023-03-27T04:43:54.142Z,2.90
2023-03-27T04:46:23.235Z,2.80
2023-03-27T04:49:00.873Z,2.80
2023-03-27T04:52:02.277Z,2.60
2023-03-27T04:54:33.055Z,2.50
2023-03-27T04:57:03.782Z,2.40
2023-03-27T04:59:33.440Z,2.30
2023-03-27T05:02:21.764Z,2.30
2023-03-27T05:05:02.696Z,2.30
2023-03-27T05:07:34.679Z,2.20
2023-03-27T05:10:06.421Z,2.20
2023-03-27T05:12:37.712Z,2.00
2023-03-27T05:15:07.418Z,2.00
2023-03-27T05:17:43.619Z,2.00
2023-03-27T05:20:17.206Z,2.00
2023-03-27T05:22:46.906Z,2.00
2023-03-27T05:25:34.520Z,2.00
2023-03-27T05:28:07.362Z,2.00
2023-03-27T05:30:37.502Z,2.00
2023-03-27T05:33:21.244Z,2.00
2023-03-27T05:35:53.111Z,1.90
2023-03-27T05:38:23.065Z,1.90
2023-03-27T05:41:11.349Z,1.90
2023-03-27T05:43:45.539Z,1.80
2023-03-27T05:46:21.379Z,1.80
2023-03-27T05:48:56.800Z,1.80
2023-03-27T05:51:28.231Z,1.80
2023-03-27T05:53:57.719Z,1.70
2023-03-27T05:56:36.256Z,1.60
2023-03-27T05:59:07.273Z,1.50
2023-03-27T06:01:40.048Z,1.40
2023-03-27T06:04:09.656Z,1.30
2023-03-27T06:07:05.228Z,1.30
2023-03-27T06:09:35.756Z,1.20
2023-03-27T06:12:24.235Z,1.00
2023-03-27T06:15:00.973Z,0.90
2023-03-27T06:17:42.881Z,0.90
2023-03-27T06:20:15.698Z,0.60
2023-03-27T06:22:56.660Z,0.70
2023-03-27T06:25:33.821Z,0.70
2023-03-27T06:28:04.851Z,0.70
2023-03-27T06:30:42.473Z,0.60
2023-03-27T06:33:29.987Z,0.70
2023-03-27T06:36:02.290Z,0.60
2023-03-27T06:38:34.802Z,0.60
2023-03-27T06:41:04.812Z,0.50
2023-03-27T06:43:54.321Z,0.40
2023-03-27T06:46:44.791Z,0.30
2023-03-27T06:49:24.435Z,0.50
2023-03-27T06:51:53.851Z,0.30
2023-03-27T06:54:25.422Z,0.30
2023-03-27T06:56:57.744Z,0.20
2023-03-27T06:59:27.466Z,0.30
2023-03-27T07:02:01.757Z,0.80
2023-03-27T07:04:36.719Z,0.40
2023-03-27T07:07:23.901Z,0.40
2023-03-27T07:09:54.464Z,0.60
2023-03-27T07:12:29.030Z,0.50
2023-03-27T07:14:58.150Z,0.80
2023-03-27T07:17:45.485Z,0.80
2023-03-27T07:20:16.984Z,1.30
2023-03-27T07:22:46.257Z,0.80
2023-03-27T07:25:33.395Z,0.80
2023-03-27T07:28:05.701Z,0.90
2023-03-27T07:30:35.989Z,0.90
2023-03-27T07:33:06.102Z,0.90
2023-03-27T07:35:35.548Z,0.90
2023-03-27T07:38:36.627Z,1.00
2023-03-27T07:41:21.401Z,1.00
2023-03-27T07:44:09.210Z,1.00
2023-03-27T07:46:52.240Z,1.00
2023-03-27T07:49:39.503Z,1.10
2023-03-27T07:52:11.776Z,1.30
2023-03-27T07:54:57.582Z,1.30
2023-03-27T07:57:39.756Z,1.30
2023-03-27T08:00:23.116Z,1.30
2023-03-27T08:03:08.976Z,1.30
2023-03-27T08:05:41.448Z,1.40
2023-03-27T08:08:14.031Z,1.30
2023-03-27T08:10:59.517Z,1.30
2023-03-27T08:13:34.502Z,1.50
2023-03-27T08:16:07.419Z,1.60
2023-03-27T08:18:38.288Z,1.80
2023-03-27T08:21:10.946Z,2.00
2023-03-27T08:23:41.736Z,2.10
2023-03-27T08:26:37.595Z,2.20
2023-03-27T08:29:14.809Z,2.30
2023-03-27T08:31:49.265Z,2.30
2023-03-27T08:34:19.038Z,2.30
2023-03-27T08:36:52.861Z,2.30
2023-03-27T08:39:24.036Z,2.20
2023-03-27T08:42:10.976Z,2.10
2023-03-27T08:44:42.088Z,2.10
2023-03-27T08:47:21.301Z,2.10
2023-03-27T08:50:02.102Z,2.10
2023-03-27T08:52:52.554Z,2.10
2023-03-27T08:55:35.161Z,2.10
2023-03-27T08:58:20.256Z,2.10
2023-03-27T09:01:02.620Z,2.20
2023-03-27T09:03:37.776Z,2.20
2023-03-27T09:06:12.617Z,2.30
2023-03-27T09:08:53.272Z,2.40
2023-03-27T09:11:32.110Z,2.50
2023-03-27T09:14:12.905Z,2.60
2023-03-27T09:16:51.251Z,2.60
2023-03-27T09:19:38.894Z,2.60
2023-03-27T09:22:14.463Z,2.70
2023-03-27T09:25:08.182Z,2.60
2023-03-27T09:27:57.824Z,2.70
2023-03-27T09:30:41.137Z,2.80
2023-03-27T09:33:21.247Z,2.80
2023-03-27T09:35:50.764Z,2.90
2023-03-27T09:38:28.556Z,2.80
2023-03-27T09:41:03.840Z,2.80
2023-03-27T09:43:43.313Z,2.80
2023-03-27T09:46:18.526Z,2.90
2023-03-27T09:48:58.562Z,2.90
2023-03-27T09:51:47.178Z,2.80
2023-03-27T09:54:25.948Z,2.70
2023-03-27T09:57:00.460Z,2.70
2023-03-27T09:59:33.797Z,2.60
2023-03-27T10:02:20.957Z,2.60
2023-03-27T10:05:18.922Z,2.60
2023-03-27T10:07:53.875Z,2.70
2023-03-27T10:10:46.973Z,2.90
2023-03-27T10:13:38.881Z,3.20
2023-03-27T10:16:10.070Z,3.40
2023-03-27T10:18:54.132Z,3.20
2023-03-27T10:21:43.653Z,3.20
2023-03-27T10:24:32.248Z,3.20
2023-03-27T10:27:29.657Z,3.10
2023-03-27T10:30:31.096Z,3.10
2023-03-27T10:33:14.752Z,3.30
2023-03-27T10:35:59.717Z,3.40
2023-03-27T10:38:34.973Z,3.20
2023-03-27T10:41:17.262Z,3.10
2023-03-27T10:43:59.987Z,3.10
2023-03-27T10:46:31.503Z,3.10
2023-03-27T10:49:22.559Z,3.00
2023-03-27T10:51:54.389Z,2.90
2023-03-27T10:54:54.448Z,2.90
2023-03-27T10:57:27.709Z,3.00
2023-03-27T11:00:02.531Z,3.20
2023-03-27T11:02:49.378Z,3.30
2023-03-27T11:05:25.737Z,3.40
2023-03-27T11:08:00.716Z,3.50
2023-03-27T11:10:36.565Z,3.50
2023-03-27T11:13:12.217Z,3.60
2023-03-27T11:15:46.278Z,3.60
2023-03-27T11:18:42.788Z,3.40
2023-03-27T11:21:16.367Z,3.40
2023-03-27T11:24:00.536Z,3.70
2023-03-27T11:27:02.637Z,3.90
2023-03-27T11:29:36.525Z,4.30
2023-03-27T11:32:13.165Z,5.00
2023-03-27T11:34:55.204Z,5.20
2023-03-27T11:37:44.730Z,5.40
2023-03-27T11:40:20.680Z,5.40
2023-03-27T11:42:59.490Z,5.60
2023-03-27T11:45:37.517Z,7.50
2023-03-27T11:48:34.646Z,7.70
2023-03-27T11:51:07.787Z,6.50
2023-03-27T11:53:51.580Z,5.50
2023-03-27T11:56:54.815Z,4.90
2023-03-27T12:00:08.142Z,4.80
2023-03-27T12:03:15.390Z,4.80
2023-03-27T12:06:03.642Z,4.60
2023-03-27T12:08:54.399Z,4.50
2023-03-27T12:11:25.966Z,4.70
2023-03-27T12:14:44.125Z,5.00
2023-03-27T12:17:35.571Z,4.90
2023-03-27T12:20:29.670Z,4.60
2023-03-27T12:23:27.084Z,4.30
2023-03-27T12:26:57.235Z,4.30
2023-03-27T12:30:02.475Z,4.40
2023-03-27T12:32:57.170Z,4.80
2023-03-27T12:35:34.219Z,5.10
2023-03-27T12:38:08.075Z,5.80
2023-03-27T12:40:42.357Z,6.50
2023-03-27T12:43:30.076Z,6.80
2023-03-27T12:46:33.940Z,6.60
2023-03-27T12:49:34.172Z,6.20
2023-03-27T12:52:13.523Z,6.40
2023-03-27T12:55:30.349Z,7.50
2023-03-27T12:58:00.796Z,6.80
2023-03-27T13:00:55.981Z,6.30
2023-03-27T13:04:04.114Z,5.80
2023-03-27T13:06:42.295Z,6.60
2023-03-27T13:09:33.546Z,8.50
2023-03-27T13:12:25.349Z,12.00
2023-03-27T13:15:31.960Z,12.70
2023-03-27T13:18:23.881Z,10.50
2023-03-27T13:21:06.855Z,8.50
2023-03-27T13:23:56.436Z,7.20
2023-03-27T13:26:42.514Z,7.50
2023-03-27T13:29:18.037Z,10.60
2023-03-27T13:32:06.833Z,9.60
2023-03-27T13:35:05.442Z,7.40
2023-03-27T13:37:55.763Z,8.60
2023-03-27T13:40:41.103Z,8.00
2023-03-27T13:43:23.450Z,6.70
2023-03-27T13:46:00.872Z,6.30
2023-03-27T13:49:19.458Z,7.30
2023-03-27T13:52:30.515Z,7.90
2023-03-27T13:55:35.187Z,8.50
2023-03-27T13:58:49.584Z,8.00
2023-03-27T14:01:35.516Z,9.60
2023-03-27T14:04:40.703Z,13.10
2023-03-27T14:07:42.273Z,13.80
2023-03-27T14:10:39.101Z,12.00
2023-03-27T14:13:35.587Z,10.60
2023-03-27T14:16:35.567Z,10.50
2023-03-27T14:19:33.660Z,14.30
2023-03-27T14:22:07.740Z,17.80
2023-03-27T14:24:51.053Z,16.60
2023-03-27T14:27:32.875Z,15.70
2023-03-27T14:30:11.021Z,13.20
2023-03-27T14:32:43.900Z,11.90
2023-03-27T14:35:34.325Z,12.40
2023-03-27T14:38:09.781Z,13.20
2023-03-27T14:40:48.074Z,14.30
2023-03-27T14:43:21.559Z,15.30
2023-03-27T14:46:00.539Z,15.60
2023-03-27T14:48:34.500Z,14.40
2023-03-27T14:51:08.629Z,12.80
2023-03-27T14:53:44.866Z,12.80
2023-03-27T14:56:26.387Z,12.00
2023-03-27T14:59:32.382Z,10.40
2023-03-27T15:02:09.125Z,10.60
2023-03-27T15:04:42.053Z,13.10
2023-03-27T15:07:19.887Z,14.00
2023-03-27T15:10:13.259Z,14.20
2023-03-27T15:13:01.269Z,14.80
2023-03-27T15:15:40.190Z,13.50
2023-03-27T15:18:15.766Z,12.80
2023-03-27T15:20:45.876Z,13.20
2023-03-27T15:23:22.739Z,13.10
2023-03-27T15:25:58.963Z,11.90
2023-03-27T15:28:32.996Z,11.20
2023-03-27T15:31:05.050Z,10.00
2023-03-27T15:33:41.666Z,10.00
2023-03-27T15:36:28.866Z,9.20
2023-03-27T15:39:02.079Z,8.80
2023-03-27T15:41:45.066Z,8.70
2023-03-27T15:44:21.548Z,8.20
2023-03-27T15:46:57.144Z,8.00
2023-03-27T15:49:31.131Z,9.20
2023-03-27T15:52:02.701Z,9.30
2023-03-27T15:54:34.686Z,8.50
2023-03-27T15:57:10.576Z,8.30
2023-03-27T15:59:52.354Z,7.80
2023-03-27T16:02:26.274Z,6.80
2023-03-27T16:04:59.002Z,6.40
2023-03-27T16:07:34.597Z,6.20
2023-03-27T16:10:05.731Z,5.70
2023-03-27T16:12:49.573Z,5.60
2023-03-27T16:15:31.200Z,5.40
2023-03-27T16:18:05.048Z,5.20
2023-03-27T16:20:49.758Z,5.10
2023-03-27T16:23:19.668Z,4.90
2023-03-27T16:25:50.613Z,4.80
2023-03-27T16:28:20.173Z,4.90
2023-03-27T16:30:50.329Z,4.70
2023-03-27T16:33:20.985Z,4.60
2023-03-27T16:35:52.759Z,4.60
2023-03-27T16:38:22.398Z,4.40
2023-03-27T16:40:51.635Z,4.40
2023-03-27T16:43:21.336Z,4.20
2023-03-27T16:45:51.518Z,4.10
2023-03-27T16:48:21.195Z,4.00
2023-03-27T16:50:52.676Z,3.80
2023-03-27T16:53:22.182Z,3.70
2023-03-27T16:55:54.927Z,3.50
2023-03-27T16:58:24.511Z,3.40
2023-03-27T17:00:53.586Z,3.20
2023-03-27T17:03:25.238Z,3.00
2023-03-27T17:06:01.695Z,2.90
2023-03-27T17:08:32.059Z,2.80
2023-03-27T17:11:04.630Z,2.20
2023-03-27T17:13:34.166Z,2.30
2023-03-27T17:16:03.622Z,2.20
2023-03-27T17:18:32.877Z,2.00
2023-03-27T17:21:03.752Z,1.90
2023-03-27T17:23:35.678Z,1.70
2023-03-27T17:26:09.058Z,1.60
2023-03-27T17:28:41.239Z,1.40
2023-03-27T17:31:10.765Z,1.40
2023-03-27T17:33:39.900Z,1.20
2023-03-27T17:36:16.657Z,1.10
2023-03-27T17:38:49.532Z,1.00
2023-03-27T17:41:19.272Z,0.90
2023-03-27T17:43:50.144Z,0.80
2023-03-27T17:46:19.392Z,0.70
2023-03-27T17:48:49.890Z,0.60
2023-03-27T17:51:21.952Z,0.50
2023-03-27T17:53:51.585Z,0.40
2023-03-27T17:56:20.770Z,0.40
2023-03-27T17:58:51.021Z,0.30
2023-03-27T18:01:22.588Z,0.20
2023-03-27T18:03:52.066Z,0.20
2023-03-27T18:06:22.631Z,0.00
2023-03-27T18:08:52.299Z,0.00
2023-03-27T18:11:21.840Z,0.00
2023-03-27T18:13:53.586Z,0.00
2023-03-27T18:16:23.950Z,0.30
2023-03-27T18:18:56.040Z,0.10
2023-03-27T18:21:27.032Z,0.10
2023-03-27T18:23:56.845Z,-0.10
2023-03-27T18:26:26.192Z,0.00
2023-03-27T18:28:55.737Z,0.00
2023-03-27T18:31:24.902Z,0.00
2023-03-27T18:33:54.517Z,0.00
2023-03-27T18:36:24.342Z,-0.20
2023-03-27T18:38:55.814Z,-0.30
2023-03-27T18:41:25.155Z,-0.30
2023-03-27T18:43:54.310Z,-0.50
2023-03-27T18:46:23.682Z,-0.40
2023-03-27T18:48:52.812Z,-0.50
2023-03-27T18:51:22.546Z,-0.50
2023-03-27T18:53:52.190Z,-0.50
2023-03-27T18:56:23.081Z,-0.60
2023-03-27T18:58:52.684Z,-0.60
2023-03-27T19:01:22.103Z,-0.40
2023-03-27T19:03:51.975Z,-0.40
2023-03-27T19:06:21.950Z,-0.30
2023-03-27T19:08:52.008Z,-0.30
2023-03-27T19:11:23.395Z,-0.40
2023-03-27T19:14:16.341Z,-0.40
2023-03-27T19:17:04.288Z,-0.50
2023-03-27T19:19:39.853Z,-0.60
2023-03-27T19:22:15.497Z,-0.60
2023-03-27T19:24:50.131Z,-0.70
2023-03-27T19:27:24.687Z,-0.80
2023-03-27T19:29:54.972Z,-0.80
2023-03-27T19:32:25.672Z,-0.90
2023-03-27T19:34:55.445Z,-1.00
2023-03-27T19:37:25.034Z,-1.00
2023-03-27T19:39:54.820Z,-1.10
2023-03-27T19:42:25.885Z,-1.10
2023-03-27T19:44:55.522Z,-1.20
2023-03-27T19:47:25.067Z,-1.20
2023-03-27T19:49:54.411Z,-1.20
2023-03-27T19:53:05.310Z,-1.30
2023-03-27T19:55:39.092Z,-1.30
2023-03-27T19:58:10.941Z,-1.20
2023-03-27T20:00:40.847Z,-1.20
2023-03-27T20:03:13.402Z,-1.20
2023-03-27T20:05:44.605Z,-1.00
2023-03-27T20:08:13.838Z,-0.90
2023-03-27T20:10:44.880Z,-0.70
2023-03-27T20:13:17.143Z,-0.60
2023-03-27T20:15:49.231Z,-0.60
2023-03-27T20:18:20.283Z,-0.60
2023-03-27T20:20:50.740Z,-0.90
2023-03-27T20:23:20.205Z,-1.00
2023-03-27T20:25:52.566Z,-1.20
2023-03-27T20:28:23.800Z,-1.30
2023-03-27T20:30:53.103Z,-1.40
2023-03-27T20:33:22.857Z,-1.50
2023-03-27T20:35:52.758Z,-2.30
2023-03-27T20:38:23.691Z,-1.50
2023-03-27T20:40:54.874Z,-1.30
2023-03-27T20:43:31.796Z,-1.20
2023-03-27T20:46:01.088Z,-1.10
2023-03-27T20:48:40.728Z,-0.80
2023-03-27T20:51:14.954Z,-0.60
2023-03-27T20:53:44.185Z,-0.60
2023-03-27T20:56:18.097Z,-0.50
2023-03-27T20:58:50.643Z,-0.40
2023-03-27T21:01:21.043Z,-0.40
2023-03-27T21:03:50.131Z,-0.30
2023-03-27T21:06:22.318Z,-0.30
2023-03-27T21:08:51.487Z,-0.30
2023-03-27T21:11:20.919Z,-0.30
2023-03-27T21:13:51.987Z,-0.40
2023-03-27T21:16:21.147Z,-0.50
2023-03-27T21:18:51.298Z,-0.50
2023-03-27T21:21:20.597Z,-0.60
2023-03-27T21:23:51.704Z,-0.60
2023-03-27T21:26:21.296Z,-0.50
2023-03-27T21:28:55.282Z,-0.50
2023-03-27T21:31:24.682Z,-0.50
2023-03-27T21:33:53.919Z,-0.40
2023-03-27T21:36:23.701Z,-0.40
2023-03-27T21:38:52.874Z,-0.50
2023-03-27T21:41:22.098Z,-0.30
2023-03-27T21:43:51.189Z,-0.20
2023-03-27T21:46:23.541Z,-0.10
2023-03-27T21:48:52.941Z,-0.10
2023-03-27T21:51:22.205Z,0.00
2023-03-27T21:53:51.295Z,0.10
2023-03-27T21:56:20.812Z,0.10
2023-03-27T21:58:50.677Z,0.00
2023-03-27T22:01:21.797Z,0.00
2023-03-27T22:03:51.270Z,-0.10
2023-03-27T22:06:20.511Z,-0.20
2023-03-27T22:08:49.308Z,-0.20
2023-03-27T22:11:18.654Z,-0.20
2023-03-27T22:13:49.570Z,-0.20
2023-03-27T22:16:21.768Z,-0.20
2023-03-27T22:18:51.028Z,-0.20
2023-03-27T22:21:22.520Z,-0.20
2023-03-27T22:23:52.921Z,-0.30
2023-03-27T22:26:24.733Z,-0.10
2023-03-27T22:28:54.208Z,0.30
2023-03-27T22:31:25.965Z,-0.20
2023-03-27T22:33:55.483Z,-0.30
2023-03-27T22:36:24.698Z,-0.10
2023-03-27T22:38:53.718Z,-0.10
2023-03-27T22:41:22.712Z,-0.10
2023-03-27T22:43:51.671Z,-0.20
2023-03-27T22:46:22.812Z,-0.20
2023-03-27T22:48:57.424Z,-0.20
2023-03-27T22:51:27.109Z,-0.20
2023-03-27T22:53:56.455Z,-0.20
2023-03-27T22:56:26.041Z,0.00
2023-03-27T22:58:54.927Z,0.00
2023-03-27T23:01:23.997Z,0.00
2023-03-27T23:03:53.105Z,0.00
2023-03-27T23:06:24.980Z,0.00
2023-03-27T23:08:54.524Z,0.10
2023-03-27T23:11:24.149Z,0.00
2023-03-27T23:13:53.354Z,0.00
2023-03-27T23:16:23.018Z,0.00
2023-03-27T23:18:51.735Z,0.00
2023-03-27T23:21:20.370Z,-0.10
2023-03-27T23:23:50.810Z,0.00
2023-03-27T23:26:19.709Z,0.00
2023-03-27T23:28:49.066Z,0.00
2023-03-27T23:31:20.404Z,0.00
2023-03-27T23:33:50.980Z,-0.10
2023-03-27T23:36:21.818Z,0.00
2023-03-27T23:38:53.336Z,0.00
2023-03-27T23:41:23.216Z,-0.10
2023-03-27T23:43:54.113Z,-0.10
2023-03-27T23:46:22.948Z,-0.20
2023-03-27T23:48:51.774Z,-0.20
2023-03-27T23:51:21.032Z,-0.20
2023-03-27T23:53:49.890Z,-0.20
2023-03-27T23:56:20.768Z,-0.20
2023-03-27T23:58:50.177Z,-0.20
